createdAt,value
2023-03-24T00:02:46.658Z,61.21
2023-03-24T00:07:46.701Z,61.36
2023-03-24T00:12:47.987Z,61.51
2023-03-24T00:17:47.096Z,62.26
2023-03-24T00:22:49.737Z,61.96
2023-03-24T00:27:51.297Z,62.03
2023-03-24T00:32:51.253Z,62.18
2023-03-24T00:37:52.057Z,61.64
2023-03-24T00:42:53.084Z,61.96
2023-03-24T00:47:54.819Z,61.86
2023-03-24T00:52:54.303Z,61.76
2023-03-24T00:57:55.268Z,61.82
2023-03-24T01:02:56.105Z,62.18
2023-03-24T01:07:57.921Z,62.14
2023-03-24T01:13:00.572Z,62.03
2023-03-24T01:18:02.284Z,62.36
2023-03-24T01:23:01.429Z,62.13
2023-03-24T01:28:01.734Z,62.03
2023-03-24T01:33:00.789Z,62.30
2023-03-24T01:38:00.308Z,62.10
2023-03-24T01:43:00.376Z,62.57
2023-03-24T01:48:01.279Z,62.39
2023-03-24T01:53:01.359Z,62.47
2023-03-24T01:58:03.473Z,62.50
2023-03-24T02:03:21.061Z,62.42
2023-03-24T02:08:32.894Z,62.82
2023-03-24T02:13:31.798Z,62.79
2023-03-24T02:18:45.138Z,62.73
2023-03-24T02:23:59.728Z,62.35
2023-03-24T02:29:10.955Z,62.73
2023-03-24T02:34:52.505Z,63.32
2023-03-24T02:40:10.768Z,64.51
2023-03-24T02:45:21.446Z,65.00
2023-03-24T02:50:29.702Z,65.44
2023-03-24T02:55:34.359Z,64.51
2023-03-24T03:00:39.157Z,64.46
2023-03-24T03:05:42.878Z,65.47
2023-03-24T03:10:47.585Z,64.29
2023-03-24T03:15:51.366Z,63.48
2023-03-24T03:20:53.295Z,63.42
2023-03-24T03:26:04.276Z,63.43
2023-03-24T03:31:07.183Z,63.45
2023-03-24T03:36:11.009Z,63.40
2023-03-24T03:41:11.513Z,63.35
2023-03-24T03:46:10.634Z,63.20
2023-03-24T03:51:14.356Z,63.21
2023-03-24T03:56:25.777Z,62.95
2023-03-24T04:01:46.952Z,63.13
2023-03-24T04:07:10.832Z,63.23
2023-03-24T04:12:52.544Z,62.86
2023-03-24T04:18:32.865Z,62.65
2023-03-24T04:23:46.066Z,62.81
2023-03-24T04:28:58.212Z,62.95
2023-03-24T04:34:03.717Z,63.08
2023-03-24T04:39:04.890Z,63.08
2023-03-24T04:44:13.620Z,63.26
2023-03-24T04:49:31.241Z,63.27
2023-03-24T04:54:30.035Z,62.91
2023-03-24T04:59:37.174Z,63.11
2023-03-24T05:04:38.429Z,63.12
2023-03-24T05:09:47.971Z,62.80
2023-03-24T05:14:48.486Z,62.71
2023-03-24T05:19:54.073Z,62.92
2023-03-24T05:24:54.107Z,62.99
2023-03-24T05:29:55.040Z,63.42
2023-03-24T05:34:57.820Z,63.54
2023-03-24T05:40:02.605Z,64.02
2023-03-24T05:45:31.869Z,64.26
2023-03-24T05:50:33.356Z,64.50
2023-03-24T05:55:32.222Z,64.23
2023-03-24T06:00:44.714Z,64.75
2023-03-24T06:05:50.901Z,64.03
2023-03-24T06:10:49.858Z,65.53
2023-03-24T06:15:50.429Z,65.09
2023-03-24T06:21:03.931Z,64.36
2023-03-24T06:26:10.725Z,63.77
2023-03-24T06:31:21.490Z,64.49
2023-03-24T06:36:23.634Z,64.62
2023-03-24T06:41:23.037Z,65.43
2023-03-24T06:46:28.222Z,64.91
2023-03-24T06:51:27.886Z,64.63
2023-03-24T06:56:27.520Z,65.98
2023-03-24T07:01:32.276Z,64.64
2023-03-24T07:06:49.850Z,64.17
2023-03-24T07:11:55.707Z,64.19
2023-03-24T07:16:56.125Z,64.23
2023-03-24T07:22:03.789Z,65.10
2023-03-24T07:27:19.497Z,64.84
2023-03-24T07:32:19.882Z,64.44
2023-03-24T07:37:18.773Z,63.87
2023-03-24T07:42:17.761Z,63.53
2023-03-24T07:47:38.510Z,63.16
2023-03-24T07:52:37.877Z,63.16
2023-03-24T07:57:38.049Z,63.19
2023-03-24T08:02:41.712Z,61.93
2023-03-24T08:08:09.807Z,61.76
2023-03-24T08:13:09.093Z,61.67
2023-03-24T08:18:09.940Z,60.01
2023-03-24T08:23:09.245Z,60.32
2023-03-24T08:28:08.275Z,60.53
2023-03-24T08:33:09.298Z,59.41
2023-03-24T08:38:09.868Z,58.31
2023-03-24T08:43:10.833Z,56.88
2023-03-24T08:48:11.920Z,55.17
2023-03-24T08:53:12.437Z,53.63
2023-03-24T08:58:15.365Z,53.29
2023-03-24T09:03:22.628Z,50.45
2023-03-24T09:08:21.860Z,48.14
2023-03-24T09:13:22.342Z,46.41
2023-03-24T09:18:23.373Z,44.19
2023-03-24T09:23:22.748Z,41.68
2023-03-24T09:28:21.682Z,40.04
2023-03-24T09:33:20.547Z,39.38
2023-03-24T09:38:20.634Z,36.84
2023-03-24T09:43:28.609Z,35.90
2023-03-24T09:48:35.148Z,34.90
2023-03-24T09:53:43.932Z,34.88
2023-03-24T09:58:43.197Z,34.17
2023-03-24T10:03:42.973Z,33.30
2023-03-24T10:08:45.895Z,34.04
2023-03-24T10:13:55.462Z,33.13
2023-03-24T10:19:00.154Z,31.10
2023-03-24T10:24:08.108Z,30.38
2023-03-24T10:29:23.801Z,28.80
2023-03-24T10:34:27.491Z,27.58
2023-03-24T10:39:37.857Z,28.74
2023-03-24T10:44:43.729Z,28.60
2023-03-24T10:49:54.787Z,27.45
2023-03-24T10:54:59.662Z,26.41
2023-03-24T11:00:00.631Z,26.60
2023-03-24T11:05:02.475Z,27.15
2023-03-24T11:10:07.564Z,31.33
2023-03-24T11:15:22.055Z,31.07
2023-03-24T11:20:26.461Z,30.47
2023-03-24T11:25:33.760Z,28.24
2023-03-24T11:30:36.762Z,27.67
2023-03-24T11:35:41.650Z,28.36
2023-03-24T11:40:59.704Z,25.95
2023-03-24T11:46:03.687Z,25.28
2023-03-24T11:51:04.421Z,24.31
2023-03-24T11:56:13.204Z,24.82
2023-03-24T12:01:17.844Z,24.19
2023-03-24T12:06:31.595Z,25.44
2023-03-24T12:11:49.759Z,23.96
2023-03-24T12:16:59.054Z,20.83
2023-03-24T12:22:07.966Z,22.82
2023-03-24T12:27:21.166Z,23.11
2023-03-24T12:32:37.544Z,21.53
2023-03-24T12:37:48.596Z,20.10
2023-03-24T12:42:49.085Z,19.22
2023-03-24T12:48:05.917Z,18.26
2023-03-24T12:53:28.845Z,19.26
2023-03-24T12:58:39.567Z,18.60
2023-03-24T13:03:43.262Z,19.54
2023-03-24T13:08:49.421Z,18.56
2023-03-24T13:13:50.336Z,18.49
2023-03-24T13:18:53.394Z,18.69
2023-03-24T13:23:57.379Z,18.44
2023-03-24T13:34:31.271Z,18.42
2023-03-24T13:39:32.991Z,17.81
2023-03-24T13:44:40.368Z,19.44
2023-03-24T13:49:40.728Z,18.32
2023-03-24T13:54:40.833Z,18.15
2023-03-24T14:00:02.980Z,19.33
2023-03-24T14:05:10.124Z,18.67
2023-03-24T14:10:39.404Z,17.13
2023-03-24T14:15:45.842Z,17.68
2023-03-24T14:21:02.072Z,18.06
2023-03-24T14:26:01.165Z,17.91
2023-03-24T14:31:13.492Z,18.34
2023-03-24T14:36:14.823Z,18.26
2023-03-24T14:41:16.089Z,17.77
2023-03-24T14:46:51.733Z,19.33
2023-03-24T14:52:01.076Z,18.67
2023-03-24T14:57:00.909Z,17.57
2023-03-24T15:02:17.439Z,18.59
2023-03-24T15:07:25.956Z,18.52
2023-03-24T15:12:25.629Z,18.65
2023-03-24T15:17:26.444Z,18.28
2023-03-24T15:22:26.605Z,19.88
2023-03-24T15:27:27.573Z,19.90
2023-03-24T15:32:31.957Z,22.02
2023-03-24T15:37:40.609Z,21.69
2023-03-24T15:42:43.915Z,22.16
2023-03-24T15:47:43.067Z,22.47
2023-03-24T15:52:43.447Z,22.39
2023-03-24T15:57:43.020Z,23.89
2023-03-24T16:02:47.242Z,23.20
2023-03-24T16:07:57.260Z,23.12
2023-03-24T16:12:56.331Z,24.17
2023-03-24T16:17:55.545Z,24.72
2023-03-24T16:22:57.245Z,24.85
2023-03-24T16:27:56.490Z,25.43
2023-03-24T16:32:56.514Z,26.57
2023-03-24T16:37:57.125Z,27.17
2023-03-24T16:42:56.134Z,27.97
2023-03-24T16:47:55.141Z,28.70
2023-03-24T16:52:54.086Z,29.43
2023-03-24T16:57:54.605Z,29.53
2023-03-24T17:02:54.035Z,30.06
2023-03-24T17:07:53.021Z,30.60
2023-03-24T17:12:55.355Z,31.27
2023-03-24T17:17:55.043Z,31.98
2023-03-24T17:22:57.169Z,32.47
2023-03-24T17:27:57.814Z,32.68
2023-03-24T17:32:57.808Z,33.18
2023-03-24T17:37:56.950Z,33.70
2023-03-24T17:42:57.606Z,34.19
2023-03-24T17:47:56.534Z,34.46
2023-03-24T17:52:55.524Z,34.70
2023-03-24T17:57:54.379Z,34.94
2023-03-24T18:02:54.763Z,35.35
2023-03-24T18:07:53.679Z,35.25
2023-03-24T18:12:53.353Z,35.55
2023-03-24T18:17:57.535Z,35.78
2023-03-24T18:22:56.745Z,35.99
2023-03-24T18:27:56.357Z,36.06
2023-03-24T18:33:01.414Z,35.99
2023-03-24T18:38:00.406Z,36.35
2023-03-24T18:42:59.387Z,36.13
2023-03-24T18:47:59.739Z,36.33
2023-03-24T18:52:58.677Z,36.12
2023-03-24T18:57:57.579Z,36.56
2023-03-24T19:02:56.992Z,36.77
2023-03-24T19:07:58.642Z,36.87
2023-03-24T19:12:57.503Z,37.36
2023-03-24T19:17:58.241Z,36.77
2023-03-24T19:22:59.697Z,37.25
2023-03-24T19:27:58.629Z,37.40
2023-03-24T19:32:58.219Z,37.46
2023-03-24T19:37:59.609Z,37.79
2023-03-24T19:42:58.934Z,38.78
2023-03-24T19:47:58.101Z,38.27
2023-03-24T19:52:58.679Z,39.40
2023-03-24T19:57:57.680Z,39.90
2023-03-24T20:02:56.577Z,40.14
2023-03-24T20:07:59.649Z,40.85
2023-03-24T20:13:00.380Z,41.76
2023-03-24T20:17:59.558Z,43.10
2023-03-24T20:22:59.213Z,43.67
2023-03-24T20:28:13.256Z,44.63
2023-03-24T20:33:16.144Z,45.60
2023-03-24T20:38:21.149Z,46.55
2023-03-24T20:43:23.742Z,46.94
2023-03-24T20:48:25.245Z,48.25
2023-03-24T20:53:29.746Z,49.08
2023-03-24T20:58:35.880Z,48.55
2023-03-24T21:03:36.747Z,48.77
2023-03-24T21:08:48.884Z,48.21
2023-03-24T21:13:55.265Z,49.18
2023-03-24T21:19:02.122Z,49.25
2023-03-24T21:24:04.749Z,49.86
2023-03-24T21:29:08.333Z,49.46
2023-03-24T21:34:12.674Z,48.69
2023-03-24T21:39:16.685Z,50.21
2023-03-24T21:44:22.202Z,50.03
2023-03-24T21:49:27.264Z,49.33
2023-03-24T21:54:27.079Z,49.10
2023-03-24T21:59:44.612Z,48.71
2023-03-24T22:04:46.667Z,48.95
2023-03-24T22:09:51.486Z,48.17
2023-03-24T22:14:59.792Z,47.93
2023-03-24T22:20:15.530Z,47.11
2023-03-24T22:25:18.623Z,46.88
2023-03-24T22:30:23.938Z,47.07
2023-03-24T22:35:25.606Z,46.83
2023-03-24T22:40:27.762Z,46.86
2023-03-24T22:45:30.428Z,46.54
2023-03-24T22:50:30.712Z,46.34
2023-03-24T22:55:30.994Z,46.32
2023-03-24T23:00:33.942Z,46.24
2023-03-24T23:05:33.494Z,46.17
2023-03-24T23:10:32.374Z,46.14
2023-03-24T23:15:32.073Z,47.06
2023-03-24T23:20:32.330Z,46.99
2023-03-24T23:25:31.999Z,46.98
2023-03-24T23:30:30.869Z,46.93
2023-03-24T23:35:29.778Z,47.04
2023-03-24T23:40:30.153Z,46.80
2023-03-24T23:45:29.560Z,47.55
2023-03-24T23:50:29.403Z,47.54
2023-03-24T23:55:29.555Z,48.05
